| Date | Time | Temp. (oF) | Dew Point (oF) | Rel. Hum. (%) | Press. (in.) | Wind Dir. | Wind Speed (mph) | Hourly Rainfall (in.) |
|
|---|---|---|---|---|---|---|---|---|---|
| 1 | 03/30 | 00:00 | 49 | 47 | 93 | 30.02 | WNW | 7 | 0.00 |
| 2 | 03/29 | 23:00 | 50 | 49 | 97 | 29.99 | WNW | 9 | 0.02 |
| 3 | 03/29 | 22:00 | 52 | 50 | 95 | 29.98 | NW | 10 | 0.01 |
| 4 | 03/29 | 21:00 | 52 | 50 | 94 | 29.99 | NW | 7 | 0.01 |
| 5 | 03/29 | 20:00 | 54 | 52 | 94 | 29.99 | NW | 7 | 0.02 |
| 6 | 03/29 | 19:00 | 57 | 52 | 86 | 29.96 | NW | 13 | 0.01 |
| 7 | 03/29 | 18:00 | 59 | 53 | 83 | 29.93 | NW | 2 | 0.00 |
| 8 | 03/29 | 17:00 | 59 | 56 | 91 | 29.91 | NE | 0 | 0.00 |
| 9 | 03/29 | 16:00 | 59 | 56 | 91 | 29.90 | W | 0 | 0.05 |
| 10 | 03/29 | 15:00 | 66 | 64 | 95 | 29.87 | S | 9 | 0.01 |
| 11 | 03/29 | 14:00 | 65 | 64 | 99 | 29.88 | S | 10 | 0.01 |
| 12 | 03/29 | 13:00 | 64 | 63 | 100 | 29.90 | S | 13 | 0.01 |
| 13 | 03/29 | 12:00 | 66 | 62 | 90 | 29.90 | SSE | 19 | 0.00 |
| 14 | 03/29 | 11:00 | 62 | 61 | 97 | 29.93 | SSE | 10 | 0.00 |
| 15 | 03/29 | 10:00 | 60 | 59 | 100 | 29.95 | S | 8 | 0.00 |
| 16 | 03/29 | 09:00 | 58 | 58 | 100 | 29.96 | S | 11 | 0.00 |
| 17 | 03/29 | 08:00 | 57 | 57 | 100 | 29.98 | S | 8 | 0.01 |
| 18 | 03/29 | 07:00 | 56 | 55 | 100 | 29.99 | SSE | 6 | 0.00 |
| 19 | 03/29 | 06:00 | 56 | 55 | 100 | 30.01 | S | 7 | 0.00 |
| 20 | 03/29 | 05:00 | 57 | 56 | 98 | 30.00 | SSE | 7 | 0.00 |
| 21 | 03/29 | 04:00 | 56 | 55 | 99 | 30.01 | S | 7 | 0.00 |
| 22 | 03/29 | 03:00 | 56 | 55 | 99 | 30.02 | S | 4 | 0.00 |
| 23 | 03/29 | 02:00 | 57 | 56 | 99 | 30.06 | S | 5 | 0.00 |
| 24 | 03/29 | 01:00 | 56 | 55 | 100 | 30.08 | SSW | 8 | 0.00 |